Time;durP1;ratioP1;P1;durP2;ratioP2;P2;SDS_P1;SDS_P2;PMS_P1;PMS_P2;Temp;Humidity;BMP_temperature;BMP_pressure;BME280_temperature;BME280_humidity;BME280_pressure;Samples;Min_cycle;Max_cycle;Signal;HPM_P1;HPM_P2
2021/12/02 00:00:43;;;;;;;7.05;2.10;;;9.20;99.90;;;;;;4193650;28;20075;-55
2021/12/02 00:02:45;;;;;;;2.65;2.38;;;9.20;99.90;;;;;;4194658;28;20076;-55
2021/12/02 00:04:48;;;;;;;4.28;2.00;;;9.20;99.90;;;;;;4194573;28;20045;-54
2021/12/02 00:06:51;;;;;;;3.88;1.60;;;9.20;99.90;;;;;;4195130;28;20033;-54
2021/12/02 00:08:53;;;;;;;2.97;2.10;;;9.20;99.90;;;;;;4191640;28;20139;-54
2021/12/02 00:10:55;;;;;;;;;;;9.20;99.90;;;;;;4188610;28;20032;-54
2021/12/02 00:12:59;;;;;;;9.27;2.50;;;9.20;99.90;;;;;;4191185;28;19946;-52
2021/12/02 00:15:06;;;;;;;7.05;2.85;;;9.20;99.90;;;;;;4190827;28;20045;-53
2021/12/02 00:17:13;;;;;;;5.13;1.80;;;9.20;99.90;;;;;;4192193;28;20498;-54
2021/12/02 00:21:40;;;;;;;5.68;2.20;;;9.20;99.90;;;;;;4190978;28;20044;-54
2021/12/02 00:23:52;;;;;;;6.35;2.67;;;9.20;99.90;;;;;;4194184;28;20032;-54
2021/12/02 00:25:59;;;;;;;5.68;2.22;;;9.10;99.90;;;;;;4193830;28;20044;-54
2021/12/02 00:28:02;;;;;;;5.55;2.45;;;9.10;99.90;;;;;;4194096;28;20078;-54
2021/12/02 00:30:05;;;;;;;7.93;2.08;;;9.10;99.90;;;;;;4192477;28;20487;-54
2021/12/02 00:32:09;;;;;;;;;;;9.10;99.90;;;;;;4194868;28;20443;-53
2021/12/02 00:34:11;;;;;;;4.80;2.28;;;9.10;99.90;;;;;;4186770;28;20295;-54
2021/12/02 00:36:14;;;;;;;1.80;1.70;;;9.00;99.90;;;;;;4189119;28;20049;-54
2021/12/02 00:38:18;;;;;;;5.07;1.75;;;8.90;99.90;;;;;;4195308;28;20622;-54
2021/12/02 00:40:21;;;;;;;5.68;2.17;;;9.00;99.90;;;;;;4175471;28;20540;-54
2021/12/02 00:42:25;;;;;;;5.80;1.95;;;9.00;99.90;;;;;;4177420;28;20033;-53
2021/12/02 00:44:31;;;;;;;7.50;2.30;;;9.00;99.90;;;;;;4153988;28;20623;-54
2021/12/02 00:46:35;;;;;;;5.32;2.08;;;9.00;99.90;;;;;;4193619;28;20040;-54
2021/12/02 00:48:38;;;;;;;3.45;2.17;;;9.00;99.90;;;;;;4189148;28;20044;-54
2021/12/02 00:50:44;;;;;;;5.57;1.80;;;9.00;99.90;;;;;;4194251;28;20610;-54
2021/12/02 00:52:50;;;;;;;3.13;2.08;;;9.00;99.90;;;;;;4192896;28;20037;-53
2021/12/02 00:54:55;;;;;;;9.88;2.13;;;9.00;99.90;;;;;;4186592;28;20051;-54
2021/12/02 00:56:57;;;;;;;10.00;2.75;;;9.00;99.90;;;;;;4192168;28;20159;-54
2021/12/02 00:59:00;;;;;;;8.98;2.40;;;9.00;99.90;;;;;;4172859;28;20041;-53
2021/12/02 01:01:02;;;;;;;5.03;1.83;;;9.00;99.90;;;;;;4171489;28;20444;-54
2021/12/02 01:03:06;;;;;;;12.32;2.35;;;9.10;99.90;;;;;;4193043;28;20040;-54
2021/12/02 01:05:08;;;;;;;6.93;1.83;;;9.10;99.90;;;;;;4193809;28;20031;-53
2021/12/02 01:07:10;;;;;;;5.53;1.45;;;9.10;99.90;;;;;;4193661;28;20118;-54
2021/12/02 01:09:13;;;;;;;7.97;2.90;;;9.10;99.90;;;;;;4189462;28;20051;-54
2021/12/02 01:11:17;;;;;;;2.53;1.42;;;9.10;99.90;;;;;;4190894;28;20063;-53
2021/12/02 01:13:19;;;;;;;4.63;1.63;;;9.20;99.90;;;;;;4190041;28;20036;-54
2021/12/02 01:15:25;;;;;;;7.40;1.70;;;9.30;99.90;;;;;;4191766;28;20056;-54
2021/12/02 01:17:27;;;;;;;4.57;1.52;;;9.30;99.90;;;;;;4192912;28;20082;-54
2021/12/02 01:19:29;;;;;;;9.27;1.70;;;9.30;99.90;;;;;;4191303;28;20047;-54
2021/12/02 01:21:32;;;;;;;5.90;1.88;;;9.30;99.90;;;;;;4191469;28;20048;-53
2021/12/02 01:23:34;;;;;;;5.63;1.75;;;9.40;99.90;;;;;;4193899;28;20044;-53
2021/12/02 01:25:38;;;;;;;5.70;1.70;;;9.30;99.90;;;;;;4191143;28;20574;-54
2021/12/02 01:27:41;;;;;;;3.50;1.27;;;9.30;99.90;;;;;;4191644;28;20040;-54
2021/12/02 01:29:45;;;;;;;4.38;1.60;;;9.30;99.90;;;;;;4189908;28;20538;-55
2021/12/02 01:31:51;;;;;;;3.15;1.30;;;9.30;99.90;;;;;;4193871;28;20045;-54
2021/12/02 01:33:53;;;;;;;7.13;1.67;;;9.30;99.90;;;;;;4189047;28;20048;-53
2021/12/02 01:35:59;;;;;;;4.93;1.58;;;9.40;99.90;;;;;;4194131;28;20039;-54
2021/12/02 01:38:01;;;;;;;2.38;1.30;;;9.40;99.90;;;;;;4190983;28;20052;-55
2021/12/02 01:40:04;;;;;;;6.35;1.48;;;9.30;99.90;;;;;;4191338;28;20036;-54
2021/12/02 01:42:07;;;;;;;;;;;9.40;99.90;;;;;;4190879;28;20063;-54
2021/12/02 01:44:12;;;;;;;5.63;1.60;;;9.40;99.90;;;;;;4190974;28;19928;-54
2021/12/02 01:46:21;;;;;;;6.03;1.60;;;9.40;99.90;;;;;;4191797;28;20047;-53
2021/12/02 01:48:25;;;;;;;5.03;1.10;;;9.40;99.90;;;;;;4193055;28;20118;-54
2021/12/02 01:50:27;;;;;;;3.42;1.10;;;9.40;99.90;;;;;;4192136;28;20068;-54
2021/12/02 01:52:31;;;;;;;5.03;1.45;;;9.40;99.90;;;;;;4193058;28;20040;-54
2021/12/02 01:54:45;;;;;;;3.70;1.00;;;9.30;99.90;;;;;;4195134;28;20048;-54
2021/12/02 01:56:49;;;;;;;6.28;1.30;;;9.50;99.90;;;;;;4200646;28;20472;-54
2021/12/02 01:58:52;;;;;;;6.65;1.25;;;9.60;99.90;;;;;;4186256;28;20504;-54
2021/12/02 02:00:55;;;;;;;8.13;2.38;;;9.60;99.90;;;;;;4191504;28;20517;-54
2021/12/02 02:03:01;;;;;;;6.50;2.28;;;9.60;99.90;;;;;;4192710;28;20037;-54
2021/12/02 02:05:07;;;;;;;2.15;1.33;;;9.60;99.90;;;;;;4192689;28;20037;-54
2021/12/02 02:07:14;;;;;;;6.20;1.50;;;9.60;99.90;;;;;;4192507;28;20074;-54
2021/12/02 02:09:16;;;;;;;5.20;1.20;;;9.60;99.90;;;;;;4174342;28;20076;-54
2021/12/02 02:11:18;;;;;;;5.82;2.15;;;9.50;99.90;;;;;;4183213;28;20032;-54
2021/12/02 02:13:21;;;;;;;4.75;1.20;;;9.50;99.90;;;;;;4186905;28;20048;-54
2021/12/02 02:15:26;;;;;;;7.53;1.00;;;9.50;99.90;;;;;;4189391;28;20051;-54
2021/12/02 02:17:34;;;;;;;4.32;1.00;;;9.50;99.90;;;;;;4192485;28;20036;-55
2021/12/02 02:19:36;;;;;;;4.75;1.13;;;9.50;99.90;;;;;;4190496;28;20435;-54
2021/12/02 02:21:38;;;;;;;;;;;9.50;99.90;;;;;;4191486;28;20099;-54
2021/12/02 02:23:58;;;;;;;3.03;1.90;;;9.50;99.90;;;;;;4191693;28;20034;-53
2021/12/02 02:26:00;;;;;;;3.55;1.60;;;9.50;99.90;;;;;;4192419;28;20090;-54
2021/12/02 02:28:02;;;;;;;8.13;1.85;;;9.60;99.90;;;;;;4190110;28;20048;-54
2021/12/02 02:30:08;;;;;;;;;;;9.50;99.90;;;;;;4171552;28;20045;-54
2021/12/02 02:32:10;;;;;;;2.65;1.00;;;9.50;99.90;;;;;;4185840;28;19931;-54
2021/12/02 02:34:13;;;;;;;2.50;1.10;;;9.50;99.90;;;;;;4191529;28;20037;-54
2021/12/02 02:36:16;;;;;;;1.50;1.40;;;9.50;99.90;;;;;;4192222;28;20033;-54
2021/12/02 02:38:20;;;;;;;2.08;1.10;;;9.50;99.90;;;;;;4189119;28;20096;-54
2021/12/02 02:40:24;;;;;;;8.10;1.77;;;9.40;99.90;;;;;;4186262;28;20037;-53
2021/12/02 02:42:26;;;;;;;7.20;1.90;;;9.40;99.90;;;;;;4192326;28;20043;-54
2021/12/02 02:44:33;;;;;;;2.30;1.42;;;9.40;99.90;;;;;;4191518;28;20048;-53
2021/12/02 02:46:41;;;;;;;9.32;1.80;;;9.30;99.90;;;;;;4190781;28;20510;-54
2021/12/02 02:48:43;;;;;;;4.70;1.30;;;9.30;99.90;;;;;;4189077;28;20041;-54
2021/12/02 02:50:45;;;;;;;3.53;1.30;;;9.30;99.90;;;;;;4175862;28;20033;-53
2021/12/02 02:52:48;;;;;;;5.47;1.33;;;9.30;99.90;;;;;;4176191;28;20045;-54
2021/12/02 02:54:50;;;;;;;2.97;1.05;;;9.30;99.90;;;;;;4172411;28;20048;-54
2021/12/02 02:57:07;;;;;;;;;;;9.20;99.90;;;;;;4177794;28;20055;-54
2021/12/02 03:01:40;;;;;;;4.20;1.27;;;9.10;99.90;;;;;;4174963;28;20045;-54
2021/12/02 03:06:19;;;;;;;3.72;1.50;;;9.00;99.90;;;;;;4176371;28;20040;-54
2021/12/02 03:08:30;;;;;;;7.13;1.65;;;9.10;99.90;;;;;;4176810;28;20044;-54
2021/12/02 03:10:44;;;;;;;5.03;1.85;;;9.10;99.90;;;;;;4174241;28;20038;-54
2021/12/02 03:17:03;;;;;;;1.58;1.20;;;9.20;99.90;;;;;;4171806;28;20049;-54
2021/12/02 03:19:05;;;;;;;5.75;2.28;;;9.20;99.90;;;;;;4174106;28;20579;-54
2021/12/02 03:21:21;;;;;;;4.00;1.20;;;9.20;99.90;;;;;;4166836;28;20041;-55
2021/12/02 03:23:24;;;;;;;4.43;1.10;;;9.10;99.90;;;;;;4176401;28;20029;-54
2021/12/02 03:25:26;;;;;;;2.45;1.15;;;9.10;99.90;;;;;;4175067;28;20071;-54
2021/12/02 03:27:28;;;;;;;2.35;1.42;;;9.10;99.90;;;;;;4175666;28;20122;-54
2021/12/02 03:29:31;;;;;;;6.53;1.55;;;9.10;99.90;;;;;;4173872;28;20040;-54
2021/12/02 03:31:33;;;;;;;9.15;2.47;;;9.10;99.90;;;;;;4176170;28;20509;-54
2021/12/02 03:33:35;;;;;;;;;;;9.10;99.90;;;;;;4175970;28;20045;-54
2021/12/02 03:35:37;;;;;;;4.50;1.20;;;9.00;99.90;;;;;;4175722;28;19925;-55
2021/12/02 03:37:57;;;;;;;4.82;1.65;;;8.90;99.90;;;;;;4160002;28;20119;-54
2021/12/02 03:39:59;;;;;;;;;;;9.00;99.90;;;;;;4170748;28;20099;-54
2021/12/02 03:42:04;;;;;;;2.38;1.45;;;9.00;99.90;;;;;;4166683;28;19970;-54
2021/12/02 03:44:07;;;;;;;3.58;1.40;;;9.00;99.90;;;;;;4175441;28;20045;-54
2021/12/02 03:46:12;;;;;;;2.13;1.45;;;9.00;99.90;;;;;;4175983;28;20037;-54
2021/12/02 03:48:14;;;;;;;5.10;1.55;;;9.00;99.90;;;;;;4177327;28;20045;-54
2021/12/02 03:50:16;;;;;;;3.92;1.30;;;9.00;99.90;;;;;;4193571;28;20114;-54
2021/12/02 03:52:19;;;;;;;3.83;1.42;;;9.00;99.90;;;;;;4186645;28;20036;-55
2021/12/02 03:54:22;;;;;;;5.32;2.58;;;9.00;99.90;;;;;;4187085;28;20094;-54
2021/12/02 03:56:24;;;;;;;3.80;1.50;;;9.00;99.90;;;;;;4184263;28;20045;-55
2021/12/02 03:58:26;;;;;;;2.33;1.83;;;8.90;99.90;;;;;;4189558;28;20090;-55
2021/12/02 04:00:28;;;;;;;5.72;2.63;;;8.90;99.90;;;;;;4194878;28;20051;-54
2021/12/02 04:02:30;;;;;;;2.50;1.95;;;9.00;99.90;;;;;;4193157;28;20040;-54
2021/12/02 04:04:33;;;;;;;3.60;1.40;;;8.90;99.90;;;;;;4196076;28;20040;-55
2021/12/02 04:06:35;;;;;;;8.82;3.47;;;8.90;99.90;;;;;;4192939;28;20067;-54
2021/12/02 04:08:45;;;;;;;1.48;1.48;;;8.90;99.90;;;;;;4195005;28;20450;-54
2021/12/02 04:10:47;;;;;;;1.95;1.35;;;9.00;99.90;;;;;;4189147;28;20040;-54
2021/12/02 04:12:58;;;;;;;1.70;1.20;;;9.00;99.90;;;;;;4176546;28;20069;-54
2021/12/02 04:15:09;;;;;;;3.97;1.50;;;8.90;99.90;;;;;;4191348;28;20048;-54
2021/12/02 04:17:13;;;;;;;1.95;1.15;;;8.90;99.90;;;;;;4192219;28;20496;-54
2021/12/02 04:19:15;;;;;;;1.25;1.10;;;8.90;99.90;;;;;;4173504;28;20093;-54
2021/12/02 04:21:18;;;;;;;2.10;1.25;;;8.90;99.90;;;;;;4193933;28;20272;-54
2021/12/02 04:23:20;;;;;;;1.70;1.20;;;8.90;99.90;;;;;;4193880;28;20718;-54
2021/12/02 04:25:24;;;;;;;1.40;1.40;;;8.80;99.90;;;;;;4180086;28;20103;-54
2021/12/02 04:27:26;;;;;;;1.55;1.05;;;8.80;99.90;;;;;;4191740;28;20688;-54
2021/12/02 04:29:29;;;;;;;1.30;1.23;;;8.80;99.90;;;;;;4194868;28;20044;-54
2021/12/02 04:31:31;;;;;;;3.08;1.10;;;8.80;99.90;;;;;;4193170;28;20044;-54
2021/12/02 04:33:33;;;;;;;5.97;1.35;;;8.70;99.90;;;;;;4194593;28;20067;-54
2021/12/02 04:35:35;;;;;;;2.40;1.50;;;8.70;99.90;;;;;;4176406;28;20045;-54
2021/12/02 04:37:39;;;;;;;3.97;1.50;;;8.80;99.90;;;;;;4194449;28;20036;-54
2021/12/02 04:39:41;;;;;;;5.80;1.50;;;8.80;99.90;;;;;;4192425;28;20037;-54
2021/12/02 04:41:43;;;;;;;5.95;2.67;;;8.80;99.90;;;;;;4182257;28;20134;-54
2021/12/02 04:43:45;;;;;;;1.92;1.20;;;8.90;99.90;;;;;;4194788;28;20040;-55
2021/12/02 04:45:48;;;;;;;5.35;1.75;;;8.80;99.90;;;;;;4193907;28;20508;-54
2021/12/02 04:47:50;;;;;;;4.90;1.30;;;8.80;99.90;;;;;;4174405;28;20048;-54
2021/12/02 04:49:52;;;;;;;1.95;1.40;;;8.80;99.90;;;;;;4180789;28;20685;-55
2021/12/02 04:51:55;;;;;;;4.60;1.42;;;8.80;99.90;;;;;;4176439;28;20392;-55
2021/12/02 04:53:57;;;;;;;3.03;1.10;;;8.80;99.90;;;;;;4175621;28;20071;-53
2021/12/02 04:55:59;;;;;;;1.40;1.30;;;8.90;99.90;;;;;;4176189;28;20037;-55
2021/12/02 04:58:01;;;;;;;3.08;1.48;;;8.90;99.90;;;;;;4176523;28;20037;-54
2021/12/02 05:00:05;;;;;;;4.63;1.50;;;8.90;99.90;;;;;;4177383;28;20036;-55
2021/12/02 05:02:07;;;;;;;2.42;1.30;;;8.90;99.90;;;;;;4171421;28;20076;-54
2021/12/02 05:04:10;;;;;;;1.15;1.15;;;8.90;99.90;;;;;;4176002;28;20098;-54
2021/12/02 05:06:12;;;;;;;3.97;1.42;;;8.90;99.90;;;;;;4177053;28;20097;-55
2021/12/02 05:08:14;;;;;;;1.25;1.25;;;8.90;99.90;;;;;;4160283;28;20099;-54
2021/12/02 05:10:17;;;;;;;1.48;1.48;;;8.90;99.90;;;;;;4165698;28;20083;-55
2021/12/02 05:12:21;;;;;;;1.30;1.30;;;8.90;99.90;;;;;;4176426;28;20037;-54
2021/12/02 05:14:23;;;;;;;2.95;2.00;;;8.90;99.90;;;;;;4175396;28;20071;-54
2021/12/02 05:16:25;;;;;;;3.15;1.33;;;8.90;99.90;;;;;;4158229;28;20040;-54
2021/12/02 05:18:27;;;;;;;2.83;1.60;;;8.90;99.90;;;;;;4175478;28;20033;-54
2021/12/02 05:20:30;;;;;;;4.32;1.52;;;8.80;99.90;;;;;;4175272;28;20045;-54
2021/12/02 05:22:32;;;;;;;3.50;1.63;;;8.80;99.90;;;;;;4177107;28;20037;-56
2021/12/02 05:24:35;;;;;;;4.53;1.92;;;8.80;99.90;;;;;;4175518;28;20046;-54
2021/12/02 05:26:37;;;;;;;6.15;1.63;;;8.80;99.90;;;;;;4176791;28;20033;-54
2021/12/02 05:28:39;;;;;;;1.88;1.30;;;8.80;99.90;;;;;;4176458;28;20455;-54
2021/12/02 05:30:41;;;;;;;4.45;1.50;;;8.80;99.90;;;;;;4158674;28;20084;-54
2021/12/02 05:32:43;;;;;;;3.63;1.73;;;8.80;99.90;;;;;;4175374;28;20071;-55
2021/12/02 05:34:48;;;;;;;4.75;1.67;;;8.80;99.90;;;;;;4176556;28;20103;-55
2021/12/02 05:36:55;;;;;;;6.90;1.70;;;8.70;99.90;;;;;;4175050;28;20087;-55
2021/12/02 05:38:57;;;;;;;2.70;1.48;;;8.70;99.90;;;;;;4176603;28;20033;-55
2021/12/02 05:40:59;;;;;;;2.03;1.92;;;8.70;99.90;;;;;;4175853;28;20048;-54
2021/12/02 05:43:02;;;;;;;3.78;1.27;;;8.70;99.90;;;;;;4175080;28;20036;-54
2021/12/02 05:45:04;;;;;;;;;;;8.70;99.90;;;;;;4175879;28;20456;-55
2021/12/02 05:47:06;;;;;;;1.55;1.45;;;8.70;99.90;;;;;;4175056;28;19982;-55
2021/12/02 05:49:08;;;;;;;4.75;1.50;;;8.70;99.90;;;;;;4176124;28;20048;-54
2021/12/02 05:51:10;;;;;;;1.38;1.38;;;8.80;99.90;;;;;;4176141;28;20040;-55
2021/12/02 05:53:13;;;;;;;1.33;1.10;;;8.80;99.90;;;;;;4175062;28;21433;-55
2021/12/02 05:55:16;;;;;;;2.05;1.20;;;8.90;99.90;;;;;;4169364;28;20064;-55
2021/12/02 05:57:18;;;;;;;3.92;1.58;;;8.90;99.90;;;;;;4176383;28;20037;-55
2021/12/02 05:59:20;;;;;;;2.33;1.50;;;8.90;99.90;;;;;;4176169;28;20040;-55
2021/12/02 06:01:23;;;;;;;1.90;1.50;;;8.90;99.90;;;;;;4175810;28;20064;-55
2021/12/02 06:03:25;;;;;;;1.35;1.35;;;8.90;99.90;;;;;;4169469;28;20040;-55
2021/12/02 06:05:31;;;;;;;1.70;1.35;;;8.80;99.90;;;;;;4176092;28;20773;-55
2021/12/02 06:07:35;;;;;;;1.88;1.30;;;8.80;99.90;;;;;;4166960;28;20419;-56
2021/12/02 06:09:37;;;;;;;1.10;1.00;;;8.80;99.90;;;;;;4177487;28;20049;-55
2021/12/02 06:11:39;;;;;;;1.48;1.20;;;8.80;99.90;;;;;;4175519;28;20040;-55
2021/12/02 06:13:42;;;;;;;1.38;1.10;;;8.70;99.90;;;;;;4177861;28;20952;-56
2021/12/02 06:15:44;;;;;;;2.08;1.30;;;8.70;99.90;;;;;;4173808;28;20053;-56
2021/12/02 06:17:46;;;;;;;1.17;1.13;;;8.60;99.90;;;;;;4176355;28;20040;-56
2021/12/02 06:19:49;;;;;;;1.85;1.40;;;8.60;99.90;;;;;;4173379;28;20051;-53
2021/12/02 06:21:51;;;;;;;2.13;2.03;;;8.50;99.90;;;;;;4174374;28;20090;-56
2021/12/02 06:23:53;;;;;;;1.17;1.10;;;8.40;99.90;;;;;;4173735;28;20032;-56
2021/12/02 06:25:56;;;;;;;1.98;1.10;;;8.40;99.90;;;;;;4175161;28;20500;-57
2021/12/02 06:27:58;;;;;;;1.40;1.20;;;8.30;99.90;;;;;;4175422;28;20047;-56
2021/12/02 06:30:00;;;;;;;2.30;1.20;;;8.30;99.90;;;;;;4177386;28;20394;-56
2021/12/02 06:32:04;;;;;;;1.85;1.00;;;8.20;99.90;;;;;;4174390;28;20071;-56
2021/12/02 06:34:07;;;;;;;1.67;0.90;;;8.10;99.90;;;;;;4176126;28;20080;-57
2021/12/02 06:36:09;;;;;;;0.90;0.90;;;8.10;99.90;;;;;;4175302;28;20110;-57
2021/12/02 06:38:31;;;;;;;2.88;1.00;;;8.10;99.90;;;;;;4177032;28;20049;-57
2021/12/02 06:40:34;;;;;;;1.63;1.00;;;8.10;99.90;;;;;;4173905;28;20039;-55
2021/12/02 06:42:37;;;;;;;2.65;2.45;;;8.00;99.90;;;;;;4176231;28;20067;-55
2021/12/02 06:44:39;;;;;;;2.25;2.15;;;8.00;99.90;;;;;;4174676;28;20049;-56
2021/12/02 06:46:41;;;;;;;1.33;1.20;;;7.90;99.90;;;;;;4175425;28;20120;-55
2021/12/02 06:48:43;;;;;;;1.35;1.35;;;8.00;99.90;;;;;;4177699;28;20040;-56
2021/12/02 06:50:45;;;;;;;1.40;1.30;;;7.90;99.90;;;;;;4192512;28;20067;-55
2021/12/02 06:52:49;;;;;;;1.48;1.38;;;8.00;99.90;;;;;;4189312;28;20036;-56
2021/12/02 06:54:53;;;;;;;1.17;1.17;;;7.90;99.90;;;;;;4177272;28;20041;-56
2021/12/02 06:56:55;;;;;;;0.90;0.90;;;7.90;99.90;;;;;;4192508;28;20047;-56
2021/12/02 06:58:57;;;;;;;3.50;1.10;;;7.90;99.90;;;;;;4192784;28;20052;-57
2021/12/02 07:00:59;;;;;;;2.38;1.20;;;7.90;99.90;;;;;;4189476;28;20036;-56
2021/12/02 07:03:02;;;;;;;1.00;1.00;;;7.90;99.90;;;;;;4192809;28;20043;-55
2021/12/02 07:05:06;;;;;;;0.90;0.90;;;7.90;99.90;;;;;;4192729;28;20037;-55
2021/12/02 07:07:08;;;;;;;0.90;0.90;;;7.80;99.90;;;;;;4192354;28;20083;-55
2021/12/02 07:09:11;;;;;;;0.90;0.90;;;7.80;99.90;;;;;;4189611;28;20039;-56
2021/12/02 07:11:13;;;;;;;;;;;7.80;99.90;;;;;;4192920;28;20105;-55
2021/12/02 07:13:15;;;;;;;0.90;0.90;;;7.80;99.90;;;;;;4192950;28;20326;-56
2021/12/02 07:16:01;;;;;;;2.55;1.00;;;7.80;99.90;;;;;;4192092;28;20035;-57
2021/12/02 07:17:46;;;;;;;0.90;0.90;;;7.70;99.90;;;;;;4186598;28;20052;-56
2021/12/02 07:19:48;;;;;;;1.60;1.10;;;7.70;99.90;;;;;;4193856;28;20093;-55
2021/12/02 07:21:51;;;;;;;1.00;1.00;;;7.80;99.90;;;;;;4195241;28;20040;-56
2021/12/02 07:23:53;;;;;;;2.67;1.23;;;7.80;99.90;;;;;;4195599;28;20040;-57
2021/12/02 07:25:57;;;;;;;1.00;1.00;;;7.70;99.90;;;;;;4195726;28;20111;-55
2021/12/02 07:28:01;;;;;;;1.10;1.10;;;7.60;99.90;;;;;;4195199;28;20560;-55
2021/12/02 07:30:06;;;;;;;1.10;1.00;;;7.60;99.90;;;;;;4193892;28;20040;-56
2021/12/02 07:32:11;;;;;;;1.00;1.00;;;7.50;99.90;;;;;;4177023;28;20041;-56
2021/12/02 07:34:13;;;;;;;1.20;1.20;;;7.50;99.90;;;;;;4194330;28;20431;-56
2021/12/02 07:36:17;;;;;;;1.58;1.35;;;7.40;99.90;;;;;;4194807;28;20048;-56
2021/12/02 07:38:20;;;;;;;1.38;1.38;;;7.40;99.90;;;;;;4194369;28;20652;-56
2021/12/02 07:40:25;;;;;;;1.10;1.10;;;7.40;99.90;;;;;;4193146;28;20032;-56
2021/12/02 07:42:27;;;;;;;1.45;1.45;;;7.40;99.90;;;;;;4206753;28;20044;-56
2021/12/02 07:44:29;;;;;;;1.90;1.80;;;7.40;99.90;;;;;;4201513;28;20040;-56
2021/12/02 07:46:32;;;;;;;1.17;1.17;;;7.40;99.90;;;;;;4177480;28;20115;-56
2021/12/02 07:48:35;;;;;;;1.00;1.00;;;7.40;99.90;;;;;;4195258;28;20040;-56
2021/12/02 07:50:37;;;;;;;0.90;0.90;;;7.50;99.90;;;;;;4194407;28;20051;-57
2021/12/02 07:52:51;;;;;;;1.00;1.00;;;7.40;99.90;;;;;;4177812;28;20060;-57
2021/12/02 07:54:57;;;;;;;1.35;0.90;;;7.50;99.90;;;;;;4194582;28;20094;-56
2021/12/02 07:57:00;;;;;;;1.67;1.58;;;7.50;99.90;;;;;;4192119;28;20052;-56
2021/12/02 07:59:03;;;;;;;1.30;1.23;;;7.50;99.90;;;;;;4195365;28;20116;-57
2021/12/02 08:01:05;;;;;;;1.70;1.20;;;7.60;99.90;;;;;;4192749;28;20028;-56
2021/12/02 08:03:10;;;;;;;2.22;1.92;;;7.60;99.90;;;;;;4177199;28;20037;-56
2021/12/02 08:05:13;;;;;;;1.25;1.25;;;7.60;99.90;;;;;;4194260;28;20036;-56
2021/12/02 08:07:15;;;;;;;3.53;1.73;;;7.50;99.90;;;;;;4194959;28;20535;-55
2021/12/02 08:09:17;;;;;;;1.70;1.60;;;7.60;99.90;;;;;;4194663;28;20426;-56
2021/12/02 08:11:20;;;;;;;1.63;1.63;;;7.60;99.90;;;;;;4195497;28;20085;-55
2021/12/02 08:13:29;;;;;;;2.63;1.10;;;7.50;99.90;;;;;;4192059;28;20048;-56
2021/12/02 08:15:32;;;;;;;1.75;1.65;;;7.70;99.90;;;;;;4195024;28;20040;-56
2021/12/02 08:17:34;;;;;;;;;;;7.80;99.90;;;;;;4193044;28;20040;-56
2021/12/02 08:19:36;;;;;;;3.80;2.33;;;7.90;99.90;;;;;;4193574;28;19927;-56
2021/12/02 08:21:39;;;;;;;2.35;1.20;;;7.80;99.90;;;;;;4191797;28;20432;-55
2021/12/02 08:23:41;;;;;;;1.52;1.27;;;7.80;99.90;;;;;;4194711;28;20097;-55
2021/12/02 08:25:43;;;;;;;1.42;1.40;;;7.80;99.90;;;;;;4192505;28;20036;-55
2021/12/02 08:27:45;;;;;;;1.65;1.63;;;7.80;99.90;;;;;;4194575;28;20037;-54
2021/12/02 08:29:47;;;;;;;2.47;2.47;;;7.80;99.90;;;;;;4193442;28;20102;-55
2021/12/02 08:31:50;;;;;;;2.65;2.50;;;7.80;99.90;;;;;;4193932;28;20105;-56
2021/12/02 08:33:53;;;;;;;;;;;7.80;99.90;;;;;;4193036;28;20046;-55
2021/12/02 08:35:56;;;;;;;10.52;4.55;;;7.80;99.90;;;;;;4194488;28;19931;-56
2021/12/02 08:38:02;;;;;;;8.18;3.03;;;7.80;99.90;;;;;;4193464;28;20070;-55
2021/12/02 08:40:05;;;;;;;2.53;2.35;;;7.90;99.90;;;;;;4194698;28;20094;-55
2021/12/02 08:42:09;;;;;;;2.65;2.50;;;7.90;99.90;;;;;;4193064;28;20500;-55
2021/12/02 08:44:13;;;;;;;3.95;3.70;;;8.00;99.90;;;;;;4193304;28;20048;-54
2021/12/02 08:46:17;;;;;;;3.33;3.13;;;8.00;99.90;;;;;;4193238;28;20044;-54
2021/12/02 08:48:21;;;;;;;3.55;3.45;;;8.00;99.90;;;;;;4193786;28;20123;-54
2021/12/02 08:50:24;;;;;;;3.08;2.67;;;8.00;99.90;;;;;;4158680;28;20045;-55
2021/12/02 08:52:27;;;;;;;3.00;2.67;;;8.00;99.90;;;;;;4166662;28;20045;-55
2021/12/02 08:54:33;;;;;;;2.05;1.95;;;8.00;99.90;;;;;;4176727;28;20048;-55
2021/12/02 08:56:35;;;;;;;4.72;4.32;;;8.10;99.90;;;;;;4177881;28;20047;-55
2021/12/02 08:58:38;;;;;;;2.95;2.65;;;8.10;99.90;;;;;;4176436;28;20041;-55
2021/12/02 09:00:40;;;;;;;5.43;4.93;;;8.20;99.90;;;;;;4177232;28;20044;-55
2021/12/02 09:02:43;;;;;;;4.15;3.95;;;8.20;99.90;;;;;;4178313;28;20382;-55
2021/12/02 09:04:46;;;;;;;3.75;3.45;;;8.20;99.90;;;;;;4176775;28;20037;-55
2021/12/02 09:06:49;;;;;;;3.25;3.03;;;8.30;99.90;;;;;;4176257;28;20048;-55
2021/12/02 09:08:54;;;;;;;7.45;3.92;;;8.30;99.90;;;;;;4176856;28;20497;-55
2021/12/02 09:10:57;;;;;;;3.40;3.10;;;8.40;99.90;;;;;;4176896;28;20052;-56
2021/12/02 09:13:03;;;;;;;5.53;3.08;;;8.40;99.90;;;;;;4176782;28;20041;-55
2021/12/02 09:15:08;;;;;;;2.50;2.35;;;8.40;99.90;;;;;;4175635;28;20041;-55
2021/12/02 09:17:11;;;;;;;2.28;2.10;;;8.50;99.90;;;;;;4177904;28;20074;-55
2021/12/02 09:19:14;;;;;;;5.10;2.45;;;8.60;99.90;;;;;;4176177;28;20133;-55
2021/12/02 09:21:17;;;;;;;3.88;3.35;;;8.60;99.90;;;;;;4175476;28;20071;-55
2021/12/02 09:23:19;;;;;;;4.05;2.40;;;8.70;99.90;;;;;;4178185;28;20456;-55
2021/12/02 09:25:22;;;;;;;3.20;2.42;;;8.60;99.90;;;;;;4176180;28;20033;-55
2021/12/02 09:27:24;;;;;;;4.93;1.75;;;8.70;99.90;;;;;;4177536;28;20037;-55
2021/12/02 09:29:26;;;;;;;2.25;1.60;;;8.80;99.90;;;;;;4176038;28;20038;-55
2021/12/02 09:31:29;;;;;;;3.17;1.50;;;8.90;99.90;;;;;;4177414;28;20037;-55
2021/12/02 09:33:31;;;;;;;;;;;9.00;99.90;;;;;;4176366;28;20611;-55
2021/12/02 09:35:34;;;;;;;2.72;1.30;;;9.10;99.90;;;;;;4176125;28;19932;-54
2021/12/02 09:37:37;;;;;;;7.30;2.08;;;9.10;99.90;;;;;;4177228;28;20049;-54
2021/12/02 09:39:39;;;;;;;1.92;1.83;;;9.10;99.90;;;;;;4157968;28;20038;-55
2021/12/02 09:41:44;;;;;;;3.15;1.42;;;9.10;99.90;;;;;;4172094;28;20079;-55
2021/12/02 09:43:46;;;;;;;2.90;1.60;;;9.20;99.90;;;;;;4176737;28;20041;-55
2021/12/02 09:45:48;;;;;;;3.17;1.73;;;9.20;99.90;;;;;;4176143;28;20087;-55
2021/12/02 09:47:52;;;;;;;9.45;1.73;;;9.20;99.90;;;;;;4158245;28;20042;-55
2021/12/02 09:49:55;;;;;;;3.30;3.00;;;9.20;99.90;;;;;;4175422;28;20045;-55
2021/12/02 09:52:03;;;;;;;4.15;1.67;;;9.10;99.90;;;;;;4176881;28;20040;-55
2021/12/02 09:54:09;;;;;;;2.08;1.98;;;9.20;99.90;;;;;;4174586;28;20037;-55
2021/12/02 09:56:15;;;;;;;6.40;2.85;;;9.20;99.90;;;;;;4176710;28;20447;-55
2021/12/02 09:58:24;;;;;;;2.78;1.58;;;9.20;99.90;;;;;;4175386;28;20098;-55
2021/12/02 10:00:45;;;;;;;2.65;1.60;;;9.20;99.90;;;;;;4175789;28;20750;-55
2021/12/02 10:03:00;;;;;;;2.15;1.70;;;9.20;99.90;;;;;;4175771;28;20037;-56
2021/12/02 10:05:08;;;;;;;4.93;2.03;;;9.20;99.90;;;;;;4176404;28;20051;-56
2021/12/02 10:09:38;;;;;;;2.20;1.83;;;9.30;99.90;;;;;;4175748;28;20037;-56
2021/12/02 10:12:01;;;;;;;3.78;1.80;;;9.20;99.90;;;;;;4163999;28;20045;-56
2021/12/02 10:14:33;;;;;;;3.38;3.08;;;9.20;99.90;;;;;;4170762;28;20044;-54
2021/12/02 10:16:39;;;;;;;3.00;2.90;;;9.20;99.90;;;;;;4161561;28;20111;-56
2021/12/02 10:19:05;;;;;;;2.38;2.22;;;9.10;99.90;;;;;;4173273;28;20037;-55
2021/12/02 10:21:26;;;;;;;5.38;2.40;;;9.10;99.90;;;;;;4176003;28;20389;-56
2021/12/02 10:23:43;;;;;;;5.45;2.83;;;9.10;99.90;;;;;;4174731;28;20041;-56
2021/12/02 10:26:06;;;;;;;3.80;3.13;;;9.10;99.90;;;;;;4176932;28;20404;-56
2021/12/02 10:28:10;;;;;;;5.55;2.75;;;9.10;99.90;;;;;;4176472;28;20041;-55
2021/12/02 10:30:21;;;;;;;5.97;5.50;;;9.10;99.90;;;;;;4174243;28;20033;-55
2021/12/02 10:32:26;;;;;;;6.18;5.50;;;9.10;99.90;;;;;;4176315;28;20606;-55
2021/12/02 10:34:28;;;;;;;6.82;6.07;;;9.10;99.90;;;;;;4173958;28;20052;-55
2021/12/02 10:36:40;;;;;;;6.90;6.38;;;9.10;99.90;;;;;;4166828;28;20044;-56
2021/12/02 10:38:45;;;;;;;8.00;6.20;;;9.10;99.90;;;;;;4175231;28;20082;-55
2021/12/02 10:40:59;;;;;;;7.40;6.57;;;9.00;99.90;;;;;;4176417;28;20049;-55
2021/12/02 10:43:09;;;;;;;5.28;4.97;;;9.00;99.90;;;;;;4173822;28;20072;-55
2021/12/02 10:45:27;;;;;;;9.75;8.82;;;8.80;99.90;;;;;;4175084;28;20103;-56
2021/12/02 10:47:30;;;;;;;8.40;7.78;;;8.50;99.90;;;;;;4159079;28;20100;-56
2021/12/02 10:49:42;;;;;;;6.85;6.22;;;8.50;99.90;;;;;;4184132;28;20074;-57
2021/12/02 10:51:50;;;;;;;11.63;10.57;;;8.30;99.90;;;;;;4187484;28;20041;-57
2021/12/02 10:54:07;;;;;;;21.05;18.60;;;8.20;99.90;;;;;;4190928;28;20078;-57
2021/12/02 10:56:10;;;;;;;11.70;10.57;;;8.20;99.90;;;;;;4193572;28;20048;-57
2021/12/02 10:58:13;;;;;;;16.90;8.93;;;8.10;99.90;;;;;;4194808;28;20041;-57
2021/12/02 11:00:23;;;;;;;10.05;9.02;;;8.10;99.90;;;;;;4196554;28;20127;-56
2021/12/02 11:02:49;;;;;;;21.33;17.98;;;8.10;99.90;;;;;;4194067;28;20044;-56
2021/12/02 11:04:59;;;;;;;5.43;5.28;;;8.10;99.90;;;;;;4187074;28;20488;-55
2021/12/02 11:07:02;;;;;;;8.55;7.97;;;8.10;99.90;;;;;;4195222;28;20081;-55
2021/12/02 11:09:06;;;;;;;;;;;8.10;99.90;;;;;;4195502;28;20040;-57
2021/12/02 11:11:22;;;;;;;18.85;16.92;;;8.10;99.90;;;;;;4193895;28;20322;-57
2021/12/02 11:13:28;;;;;;;28.63;25.98;;;8.10;99.90;;;;;;4187776;28;20040;-56